Weather reports worldwide

Advertisment
Capdepera,Faro, Spain (8311): temperature & dewpoint: 17.04.2019 18:00:00 - 23.04.2019 18:00:00 (CEST)Capdepera,Faro, Spain (8311): wind speed & gusts: 17.04.2019 18:00:00 - 23.04.2019 18:00:00 (CEST)Capdepera,Faro, Spain (8311): wind direction: 17.04.2019 18:00:00 - 23.04.2019 18:00:00 (CEST)Capdepera,Faro, Spain (8311): precipitation: 17.04.2019 18:00:00 - 23.04.2019 18:00:00 (CEST)
Date & Time tt [°C] td [°C] ff [km/h] ff [kn] fx [km/h] fx [kn] dd rr [mm]
23.04.2019 18:00:00 18,9 9,9 12 6 40 22 WSW 0,0
23.04.2019 17:00:00 20,1 9,4 13 7 48 26 WSW 0,0
23.04.2019 16:00:00 17,9 13,0 27 14 45 25 S 0,0
23.04.2019 15:00:00 18,3 12,7 22 12 48 26 SSW 0,0
23.04.2019 14:00:00 18,5 12,9 21 11 38 21 SSW -
23.04.2019 13:00:00 17,2 13,9 19 10 36 20 S 0,0
23.04.2019 12:00:00 17,2 11,9 18 10 37 20 SSW 0,0
23.04.2019 11:00:00 17,8 11,4 7 4 29 16 WSW 0,0
23.04.2019 10:00:00 17,0 11,9 6 3 17 9 SW 0,0
23.04.2019 09:00:00 15,5 12,6 6 3 20 11 W 0,0
23.04.2019 08:00:00 13,5 12,2 5 3 18 10 SW -
23.04.2019 07:00:00 13,6 12,5 3 1 25 13 SW 0,0
23.04.2019 06:00:00 13,5 12,9 11 6 32 17 WNW 0,0
23.04.2019 05:00:00 13,8 13,6 13 7 37 20 WNW 0,1
23.04.2019 04:00:00 14,5 14,3 10 5 27 15 N 0,0
23.04.2019 03:00:00 14,5 14,3 10 5 37 20 NNW 0,0
23.04.2019 02:00:00 14,7 14,5 12 6 24 13 N -
23.04.2019 01:00:00 14,8 14,6 11 6 21 12 NNW 0,0
23.04.2019 00:00:00 14,8 14,6 8 4 16 9 NNW 0,0
22.04.2019 23:00:00 14,9 14,7 15 8 19 10 NNW 0,0
22.04.2019 22:00:00 14,8 14,6 13 7 19 10 N 0,0
22.04.2019 21:00:00 14,8 14,6 17 9 20 11 N 0,1
22.04.2019 20:00:00 14,8 14,6 14 8 18 10 N -
22.04.2019 19:00:00 14,8 14,6 14 8 24 13 NNE 0,8
22.04.2019 18:00:00 14,8 14,6 19 10 31 17 NNE 0,3
22.04.2019 17:00:00 14,7 14,5 26 14 41 22 NNE 0,4
22.04.2019 16:00:00 - - - - - - - -
22.04.2019 15:00:00 - - - - - - - -
22.04.2019 14:00:00 14,4 14,2 32 17 40 21 NNE -
22.04.2019 13:00:00 14,3 14,1 32 18 40 22 NNE 0,5
22.04.2019 12:00:00 14,5 14,3 29 16 37 20 NE 0,4
22.04.2019 11:00:00 14,4 14,2 29 15 37 20 NE 0,2
22.04.2019 10:00:00 14,3 14,1 29 16 42 23 NE 0,1
22.04.2019 09:00:00 14,4 14,2 32 17 40 22 ENE 0,1
22.04.2019 08:00:00 14,0 13,8 33 18 - - NNE -
22.04.2019 07:00:00 14,1 13,9 31 17 42 23 NNE 0,1
22.04.2019 06:00:00 13,9 13,7 36 20 49 26 NE 0,0
22.04.2019 05:00:00 14,0 13,4 42 23 - - NNE -
22.04.2019 04:00:00 13,7 13,5 42 23 61 33 NNE 0,4
22.04.2019 03:00:00 13,6 13,4 50 27 58 31 NNE 0,2
22.04.2019 02:00:00 13,7 13,5 33 18 - - NNE -
22.04.2019 01:00:00 - - - - - - - -
22.04.2019 00:00:00 14,7 13,1 26 14 39 21 N 0,3
21.04.2019 23:00:00 14,2 13,9 28 15 49 26 NE 0,1
21.04.2019 22:00:00 14,1 12,8 43 23 57 31 ENE 0,1
21.04.2019 21:00:00 13,8 13,5 34 19 47 26 NE 0,0
21.04.2019 20:00:00 14,2 12,9 39 21 54 29 NE -
21.04.2019 19:00:00 - - - - - - - -
21.04.2019 18:00:00 - - - - - - - -
21.04.2019 17:00:00 14,4 13,4 40 21 - - E -
21.04.2019 16:00:00 14,9 13,6 35 19 46 25 E 0,0
21.04.2019 15:00:00 - - - - - - - -
21.04.2019 14:00:00 15,1 13,8 29 16 40 21 ENE -
21.04.2019 13:00:00 14,8 14,0 30 16 - - ENE -
21.04.2019 12:00:00 14,6 14,1 31 17 40 22 ENE 0,0
21.04.2019 11:00:00 14,7 14,4 29 15 43 23 ENE 0,0
21.04.2019 10:00:00 14,2 14,0 35 19 42 23 ENE 0,0
21.04.2019 09:00:00 14,5 13,9 35 19 - - ENE -
21.04.2019 08:00:00 14,7 13,6 37 20 - - ENE -
21.04.2019 07:00:00 14,9 13,3 40 21 49 27 E 0,0
21.04.2019 06:00:00 15,0 13,0 32 18 54 29 ENE 0,0
21.04.2019 05:00:00 15,0 13,0 34 18 47 26 E 0,0
21.04.2019 04:00:00 15,0 13,0 34 19 49 27 E 0,0
21.04.2019 03:00:00 14,9 13,1 39 21 50 27 E 0,0
21.04.2019 02:00:00 15,0 12,7 44 24 57 31 E -
21.04.2019 01:00:00 15,0 12,7 43 23 54 29 E 0,0
21.04.2019 00:00:00 15,2 12,3 40 22 56 30 E 0,0
20.04.2019 23:00:00 15,5 11,5 42 23 58 32 E 0,0
20.04.2019 22:00:00 15,6 13,1 22 12 33 18 ENE 0,0
20.04.2019 21:00:00 15,9 12,1 27 15 44 24 E 0,0
20.04.2019 20:00:00 16,4 11,6 30 16 52 28 ENE -
20.04.2019 19:00:00 16,6 11,3 36 19 57 31 ENE 0,0
20.04.2019 18:00:00 16,4 11,3 36 19 56 31 E 0,0
20.04.2019 17:00:00 16,7 11,2 42 23 61 33 ENE 0,0
20.04.2019 16:00:00 17,0 11,1 48 26 63 34 ENE 0,0
20.04.2019 15:00:00 16,6 11,3 46 25 61 33 ENE 0,0
20.04.2019 14:00:00 16,5 11,4 46 25 59 32 ENE -
20.04.2019 13:00:00 16,4 11,6 43 23 54 29 ENE 0,0
20.04.2019 12:00:00 17,1 11,8 37 20 49 26 ENE 0,0
20.04.2019 11:00:00 16,6 11,3 39 21 - - ENE -
20.04.2019 10:00:00 - - - - - - - -
20.04.2019 09:00:00 16,0 11,4 40 21 50 27 ENE 0,0
20.04.2019 08:00:00 15,9 11,3 34 18 52 28 E -
20.04.2019 07:00:00 16,0 11,2 35 19 53 29 ENE 0,0
20.04.2019 06:00:00 16,2 11,4 40 22 58 32 ENE 0,0
20.04.2019 05:00:00 15,9 11,5 42 23 56 30 ENE 0,0
20.04.2019 04:00:00 15,9 11,9 38 20 49 26 ENE 0,0
20.04.2019 03:00:00 15,9 12,1 40 22 48 26 ENE 0,0
20.04.2019 02:00:00 15,9 12,5 40 22 49 27 NE -
20.04.2019 01:00:00 16,0 12,6 35 19 44 24 ENE 0,0
20.04.2019 00:00:00 - - - - - - - -
19.04.2019 23:00:00 16,3 13,4 31 17 39 21 ENE 0,0
19.04.2019 22:00:00 15,9 13,7 26 14 34 18 ENE 0,0
19.04.2019 21:00:00 15,9 14,1 21 12 35 19 ENE 0,0
19.04.2019 20:00:00 - - - - - - - -
19.04.2019 19:00:00 15,7 14,4 24 13 55 30 E 0,0
19.04.2019 18:00:00 15,6 14,3 39 21 53 29 E 0,0
19.04.2019 17:00:00 15,6 14,3 39 21 54 29 E 0,0
19.04.2019 16:00:00 15,7 14,4 34 19 49 26 E 0,0
19.04.2019 15:00:00 15,7 14,1 39 21 55 30 E 0,0
19.04.2019 14:00:00 15,7 14,1 43 23 54 29 E -
19.04.2019 13:00:00 15,7 14,1 41 22 54 29 E 0,0
19.04.2019 12:00:00 - - - - - - - -
19.04.2019 11:00:00 15,6 13,8 34 18 - - E -
19.04.2019 10:00:00 15,4 13,8 34 18 - - E -
19.04.2019 09:00:00 - - - - - - - -
19.04.2019 08:00:00 15,1 14,3 36 19 42 23 E -
19.04.2019 07:00:00 15,0 14,0 33 18 - - ESE -
19.04.2019 06:00:00 15,1 14,1 30 16 38 20 ESE 0,0
19.04.2019 05:00:00 15,2 14,2 29 16 38 21 SE 0,0
19.04.2019 04:00:00 15,2 14,1 30 16 40 21 SE 0,0
19.04.2019 03:00:00 - - - - - - - -
19.04.2019 02:00:00 - - - - - - - -
19.04.2019 01:00:00 15,6 13,4 29 16 34 18 SE 0,0
19.04.2019 00:00:00 15,5 13,7 26 14 - - ESE -
18.04.2019 23:00:00 15,5 13,9 27 14 36 19 SE 0,0
18.04.2019 22:00:00 15,7 13,9 28 15 39 21 SE 0,0
18.04.2019 21:00:00 15,6 13,6 28 15 35 19 ESE 0,0
18.04.2019 20:00:00 15,5 13,5 26 14 43 23 ESE -
18.04.2019 19:00:00 15,7 13,4 32 18 49 26 ESE 0,0
18.04.2019 18:00:00 15,6 13,4 34 18 50 27 E 0,0
18.04.2019 17:00:00 15,9 13,4 37 20 49 26 ESE 0,0
18.04.2019 16:00:00 15,7 13,7 38 21 51 28 ESE 0,0
18.04.2019 15:00:00 15,9 14,1 38 21 50 27 E 0,0
18.04.2019 14:00:00 16,3 14,3 39 21 50 27 E -
18.04.2019 13:00:00 16,0 14,2 28 15 39 21 E 0,0
18.04.2019 12:00:00 15,7 14,2 27 14 34 19 E 0,0
18.04.2019 11:00:00 15,9 14,6 27 14 40 22 E 0,0
18.04.2019 10:00:00 15,4 14,3 30 16 37 20 E 0,0
18.04.2019 09:00:00 15,1 14,1 30 16 39 21 E 0,0
18.04.2019 08:00:00 15,0 14,0 29 16 50 27 ESE -
18.04.2019 07:00:00 14,8 13,5 31 17 43 23 E 0,0
18.04.2019 06:00:00 14,8 13,5 35 19 43 23 E 0,0
18.04.2019 05:00:00 14,7 13,6 31 17 40 22 E 0,0
18.04.2019 04:00:00 14,7 13,7 32 17 39 21 ESE 0,0
18.04.2019 03:00:00 14,7 14,1 34 18 42 23 ESE 0,0
18.04.2019 02:00:00 14,7 13,9 32 17 38 21 E -
18.04.2019 01:00:00 14,7 13,7 29 16 35 19 ESE 0,0
18.04.2019 00:00:00 14,7 13,7 23 13 31 17 E 0,0
17.04.2019 23:00:00 14,8 13,3 25 14 30 16 ESE 0,0
17.04.2019 22:00:00 14,8 13,0 22 12 26 14 ESE 0,0
17.04.2019 21:00:00 14,8 12,8 21 11 26 14 ESE 0,0
17.04.2019 20:00:00 15,1 12,8 22 12 27 14 SE -
17.04.2019 19:00:00 15,5 12,8 21 11 27 14 SE 0,0
17.04.2019 18:00:00 16,0 12,7 25 13 32 18 SSE 0,0

tt = temperature
td = dewpoint
ff = wind speed
fx = gusts
dd = wind direction
rr = precipitation

Next stations